Auburn Junction, Indiana
Current Conditions -  °F | °C
As of 11:35 AM on Wednesday 22 Oct 2014 (Local Time) from KGWB Reporting Station
Overcast Overcast  
Wind Chill: 45°   Ceiling: 2100
Heat Index: 48°   Visibility: 10mi
Dew Point: 37°   Wind: 8mph
Humidity: 66%   Direction: 50°NE
Pressure: 30.35"   Gusts: NA
Location:  41.3419°N, 85.0357°W
Report Text: KGWB 221535Z AUTO 05007KT 10SM OVC021 09/03 A3035 RMK AO2
Loading
Personal Weather Stations






























Interactive Weather Map
Tropical Storm Tracking
New forecast layout! Learn more

10-Day Weather Forecast

Advertisements
Track Severe Weather on mobile